createdAt,value
2018-10-09T00:00:37.475Z,47.63
2018-10-09T00:03:06.648Z,49.37
2018-10-09T00:05:35.848Z,46.43
2018-10-09T00:08:05.609Z,43.33
2018-10-09T00:10:34.717Z,39.50
2018-10-09T00:13:04.395Z,44.53
2018-10-09T00:15:33.472Z,44.40
2018-10-09T00:18:03.107Z,42.17
2018-10-09T00:20:32.156Z,43.90
2018-10-09T00:23:01.509Z,42.70
2018-10-09T00:25:30.617Z,43.67
2018-10-09T00:27:59.688Z,41.87
2018-10-09T00:30:28.731Z,43.90
2018-10-09T00:32:57.959Z,45.37
2018-10-09T00:35:27.151Z,45.03
2018-10-09T00:37:56.286Z,45.40
2018-10-09T00:40:25.349Z,45.93
2018-10-09T00:42:54.468Z,46.17
2018-10-09T00:45:23.812Z,41.57
2018-10-09T00:48:08.062Z,42.30
2018-10-09T00:50:37.109Z,43.07
2018-10-09T00:53:06.223Z,40.50
2018-10-09T00:55:35.268Z,40.80
2018-10-09T00:58:04.514Z,39.53
2018-10-09T01:00:34.045Z,40.77
2018-10-09T01:03:03.132Z,42.40
2018-10-09T01:05:32.199Z,45.50
2018-10-09T01:08:01.458Z,42.10
2018-10-09T01:10:30.629Z,43.93
2018-10-09T01:13:00.301Z,42.87
2018-10-09T01:15:29.652Z,40.93
2018-10-09T01:17:58.816Z,41.30
2018-10-09T01:20:31.231Z,40.87
2018-10-09T01:23:01.713Z,42.43
2018-10-09T01:25:30.871Z,43.40
2018-10-09T01:28:00.354Z,43.87
2018-10-09T01:30:29.556Z,44.73
2018-10-09T01:32:58.741Z,45.37
2018-10-09T01:35:27.962Z,41.57
2018-10-09T01:37:57.097Z,42.10
2018-10-09T01:40:26.144Z,40.80
2018-10-09T01:42:55.288Z,41.27
2018-10-09T01:45:25.212Z,40.60
2018-10-09T01:47:54.433Z,40.23
2018-10-09T01:50:24.080Z,37.30
2018-10-09T01:52:53.174Z,40.27
2018-10-09T01:55:22.398Z,31.60
2018-10-09T01:57:51.586Z,38.67
2018-10-09T02:00:20.643Z,36.50
2018-10-09T02:02:49.798Z,35.80
2018-10-09T02:05:19.625Z,36.27
2018-10-09T02:07:48.819Z,36.63
2018-10-09T02:10:18.634Z,38.10
2018-10-09T02:12:47.752Z,36.73
2018-10-09T02:15:16.853Z,38.43
2018-10-09T02:17:46.141Z,40.57
2018-10-09T02:20:15.244Z,41.30
2018-10-09T02:22:44.309Z,39.07
2018-10-09T02:25:13.399Z,37.50
2018-10-09T02:27:42.760Z,36.70
2018-10-09T02:30:11.809Z,38.53
2018-10-09T02:32:41.060Z,40.47
2018-10-09T02:35:10.156Z,37.40
2018-10-09T02:37:39.223Z,39.33
2018-10-09T02:40:08.289Z,37.50
2018-10-09T02:42:37.320Z,41.30
2018-10-09T02:45:06.424Z,39.50
2018-10-09T02:47:35.519Z,41.40
2018-10-09T02:50:05.145Z,41.63
2018-10-09T02:52:34.275Z,40.77
2018-10-09T02:55:03.370Z,39.23
2018-10-09T02:57:33.053Z,42.90
2018-10-09T03:00:02.164Z,39.80
2018-10-09T03:02:31.377Z,41.40
2018-10-09T03:05:01.021Z,43.67
2018-10-09T03:07:30.282Z,41.17
2018-10-09T03:09:59.309Z,42.60
2018-10-09T03:12:28.476Z,41.73
2018-10-09T03:14:58.255Z,40.83
2018-10-09T03:17:27.401Z,42.70
2018-10-09T03:19:56.518Z,39.80
2018-10-09T03:22:26.223Z,46.43
2018-10-09T03:24:56.060Z,40.53
2018-10-09T03:27:25.213Z,39.27
2018-10-09T03:29:55.118Z,42.10
2018-10-09T03:32:24.695Z,40.80
2018-10-09T03:34:53.841Z,43.10
2018-10-09T03:37:23.653Z,45.47
2018-10-09T03:39:52.783Z,42.67
2018-10-09T03:42:21.875Z,45.97
2018-10-09T03:44:51.053Z,42.93
2018-10-09T03:47:20.104Z,46.50
2018-10-09T03:49:49.306Z,42.67
2018-10-09T03:52:18.428Z,41.10
2018-10-09T03:54:47.648Z,44.13
2018-10-09T03:57:17.393Z,44.00
2018-10-09T03:59:46.677Z,41.23
2018-10-09T04:02:15.916Z,44.07
2018-10-09T04:04:45.044Z,42.90
2018-10-09T04:07:14.246Z,43.10
2018-10-09T04:09:43.319Z,44.30
2018-10-09T04:12:12.473Z,43.10
2018-10-09T04:14:41.638Z,42.77
2018-10-09T04:17:10.673Z,41.47
2018-10-09T04:19:39.750Z,44.67
2018-10-09T04:22:09.279Z,44.17
2018-10-09T04:24:38.316Z,45.73
2018-10-09T04:27:07.971Z,47.67
2018-10-09T04:29:37.176Z,45.40
2018-10-09T04:32:06.670Z,44.17
2018-10-09T04:34:35.743Z,45.73
2018-10-09T04:37:04.856Z,47.80
2018-10-09T04:39:34.580Z,50.77
2018-10-09T04:42:03.703Z,50.33
2018-10-09T04:44:32.968Z,54.13
2018-10-09T04:47:02.032Z,52.80
2018-10-09T04:49:31.320Z,53.33
2018-10-09T04:52:00.339Z,52.07
2018-10-09T04:54:29.428Z,52.97
2018-10-09T04:56:58.672Z,52.00
2018-10-09T04:59:27.796Z,49.73
2018-10-09T05:01:57.788Z,50.43
2018-10-09T05:04:26.968Z,48.80
2018-10-09T05:06:56.816Z,49.80
2018-10-09T05:09:25.965Z,51.97
2018-10-09T05:11:55.153Z,53.10
2018-10-09T05:14:24.857Z,52.60
2018-10-09T05:16:53.923Z,52.97
2018-10-09T05:19:23.181Z,49.60
2018-10-09T05:21:52.270Z,50.27
2018-10-09T05:24:21.424Z,53.47
2018-10-09T05:26:50.546Z,50.73
2018-10-09T05:29:19.653Z,47.30
2018-10-09T05:31:48.707Z,47.83
2018-10-09T05:34:17.816Z,48.63
2018-10-09T05:36:47.081Z,48.83
2018-10-09T05:39:16.188Z,50.20
2018-10-09T05:41:46.464Z,49.00
2018-10-09T05:44:15.675Z,48.00
2018-10-09T05:46:44.808Z,52.13
2018-10-09T05:49:13.907Z,50.30
2018-10-09T05:51:43.008Z,50.07
2018-10-09T05:54:13.279Z,46.23
2018-10-09T05:56:42.348Z,47.77
2018-10-09T05:59:11.416Z,47.10
2018-10-09T06:01:40.563Z,45.93
2018-10-09T06:04:11.216Z,47.30
2018-10-09T06:06:40.286Z,50.13
2018-10-09T06:09:10.445Z,48.23
2018-10-09T06:11:39.576Z,47.43
2018-10-09T06:14:08.864Z,46.43
2018-10-09T06:16:38.100Z,47.00
2018-10-09T06:19:07.744Z,50.23
2018-10-09T06:21:37.680Z,49.23
2018-10-09T06:24:07.137Z,48.53
2018-10-09T06:26:36.375Z,47.00
2018-10-09T06:29:05.096Z,47.53
2018-10-09T06:31:34.103Z,50.07
2018-10-09T06:34:03.250Z,47.90
2018-10-09T06:36:32.148Z,44.40
2018-10-09T06:39:02.164Z,43.40
2018-10-09T06:41:31.326Z,44.00
2018-10-09T06:44:00.913Z,45.90
2018-10-09T06:46:30.258Z,45.33
2018-10-09T06:48:59.275Z,42.17
2018-10-09T06:51:28.501Z,42.53
2018-10-09T06:53:57.862Z,40.33
2018-10-09T06:56:26.668Z,39.90
2018-10-09T06:58:55.707Z,36.87
2018-10-09T07:01:24.891Z,39.43
2018-10-09T07:03:54.174Z,34.60
2018-10-09T07:06:23.434Z,33.20
2018-10-09T07:08:53.817Z,32.90
2018-10-09T07:11:22.998Z,34.50
2018-10-09T07:13:52.509Z,33.90
2018-10-09T07:16:21.576Z,35.70
2018-10-09T07:18:50.649Z,34.43
2018-10-09T07:21:19.735Z,34.77
2018-10-09T07:23:48.811Z,33.53
2018-10-09T07:26:18.108Z,33.10
2018-10-09T07:28:47.301Z,35.60
2018-10-09T07:31:16.583Z,34.30
2018-10-09T07:33:46.373Z,33.77
2018-10-09T07:36:15.538Z,34.97
2018-10-09T07:38:44.933Z,36.27
2018-10-09T07:41:14.076Z,35.43
2018-10-09T07:43:44.524Z,32.90
2018-10-09T07:46:13.611Z,33.13
2018-10-09T07:48:43.024Z,33.50
2018-10-09T07:51:12.377Z,32.63
2018-10-09T07:53:41.444Z,34.40
2018-10-09T07:56:10.801Z,33.00
2018-10-09T07:58:39.962Z,32.37
2018-10-09T08:01:09.053Z,32.93
2018-10-09T08:03:38.163Z,32.70
2018-10-09T08:06:07.354Z,35.73
2018-10-09T08:08:36.642Z,36.93
2018-10-09T08:11:05.928Z,36.33
2018-10-09T08:13:35.556Z,37.97
2018-10-09T08:16:04.691Z,37.77
2018-10-09T08:18:33.849Z,36.37
2018-10-09T08:21:03.053Z,35.80
2018-10-09T08:23:32.759Z,35.33
2018-10-09T08:26:02.056Z,32.67
2018-10-09T08:28:31.256Z,35.60
2018-10-09T08:31:00.624Z,31.97
2018-10-09T08:33:29.786Z,28.60
2018-10-09T08:35:58.837Z,31.73
2018-10-09T08:38:28.160Z,29.13
2018-10-09T08:40:57.345Z,27.63
2018-10-09T08:43:26.735Z,29.47
2018-10-09T08:45:55.944Z,29.40
2018-10-09T08:48:25.075Z,27.30
2018-10-09T08:50:54.804Z,28.37
2018-10-09T08:53:23.850Z,28.87
2018-10-09T08:55:53.213Z,28.87
2018-10-09T08:58:22.268Z,26.87
2018-10-09T09:00:51.885Z,27.53
2018-10-09T09:03:21.024Z,27.87
2018-10-09T09:05:50.094Z,28.43
2018-10-09T09:08:19.153Z,26.70
2018-10-09T09:10:48.706Z,27.77
2018-10-09T09:13:18.224Z,27.87
2018-10-09T09:15:47.393Z,26.03
2018-10-09T09:18:16.523Z,27.03
2018-10-09T09:20:45.737Z,26.90
2018-10-09T09:23:15.423Z,27.20
2018-10-09T09:25:44.704Z,26.37
2018-10-09T09:28:13.962Z,27.07
2018-10-09T09:30:43.092Z,26.53
2018-10-09T09:33:12.284Z,25.73
2018-10-09T09:35:41.397Z,26.40
2018-10-09T09:38:10.473Z,26.37
2018-10-09T09:40:39.921Z,27.37
2018-10-09T09:43:09.166Z,27.07
2018-10-09T09:45:38.410Z,24.43
2018-10-09T09:48:07.887Z,24.27
2018-10-09T09:50:37.038Z,23.83
2018-10-09T09:53:06.261Z,26.40
2018-10-09T09:55:35.377Z,25.00
2018-10-09T09:58:04.612Z,24.00
2018-10-09T10:00:39.206Z,22.37
2018-10-09T10:03:08.531Z,25.90
2018-10-09T10:05:37.717Z,25.17
2018-10-09T10:08:07.706Z,22.40
2018-10-09T10:10:37.532Z,25.27
2018-10-09T10:13:06.729Z,19.93
2018-10-09T10:15:35.901Z,20.00
2018-10-09T10:18:04.933Z,18.50
2018-10-09T10:20:34.139Z,19.57
2018-10-09T10:23:03.262Z,23.17
2018-10-09T10:25:32.386Z,23.53
2018-10-09T10:28:01.553Z,23.17
2018-10-09T10:30:30.645Z,20.70
2018-10-09T10:33:00.575Z,21.07
2018-10-09T10:35:31.400Z,21.70
2018-10-09T10:38:00.763Z,21.87
2018-10-09T10:40:29.913Z,22.30
2018-10-09T10:42:59.099Z,20.30
2018-10-09T10:45:28.201Z,21.97
2018-10-09T10:47:57.289Z,20.87
2018-10-09T10:50:26.397Z,23.67
2018-10-09T10:52:55.544Z,22.60
2018-10-09T10:55:24.722Z,23.20
2018-10-09T10:57:53.852Z,20.20
2018-10-09T11:00:23.003Z,23.30
2018-10-09T11:02:52.125Z,20.27
2018-10-09T11:05:21.355Z,19.67
2018-10-09T11:07:50.710Z,20.13
2018-10-09T11:10:19.743Z,19.50
2018-10-09T11:12:48.822Z,23.10
2018-10-09T11:15:17.913Z,20.07
2018-10-09T11:17:48.476Z,19.10
2018-10-09T11:20:18.880Z,20.23
2018-10-09T11:22:47.985Z,18.23
2018-10-09T11:25:17.371Z,19.90
2018-10-09T11:27:46.672Z,19.90
2018-10-09T11:30:15.778Z,20.80
2018-10-09T11:32:44.897Z,19.03
2018-10-09T11:35:14.027Z,17.57
2018-10-09T11:37:43.260Z,18.30
2018-10-09T11:40:13.535Z,17.30
2018-10-09T11:42:42.682Z,14.10
2018-10-09T11:45:11.793Z,13.00
2018-10-09T11:47:40.974Z,13.90
2018-10-09T11:50:10.842Z,13.77
2018-10-09T11:52:39.974Z,12.73
2018-10-09T11:55:09.064Z,12.10
2018-10-09T11:57:38.180Z,10.30
2018-10-09T12:00:08.979Z,12.60
2018-10-09T12:02:38.108Z,11.20
2018-10-09T12:05:07.337Z,11.10
2018-10-09T12:07:37.161Z,14.37
2018-10-09T12:10:06.570Z,12.27
2018-10-09T12:12:35.908Z,12.00
2018-10-09T12:15:05.520Z,12.87
2018-10-09T12:17:34.554Z,10.80
2018-10-09T12:20:04.001Z,11.63
2018-10-09T12:22:33.125Z,11.50
2018-10-09T12:25:03.705Z,11.07
2018-10-09T12:27:32.812Z,12.00
2018-10-09T12:30:02.312Z,11.33
2018-10-09T12:32:31.545Z,10.47
2018-10-09T12:35:01.302Z,12.30
2018-10-09T12:37:30.357Z,12.20
2018-10-09T12:39:59.508Z,10.90
2018-10-09T12:42:28.795Z,11.47
2018-10-09T12:44:58.588Z,10.60
2018-10-09T12:47:28.158Z,10.30
2018-10-09T12:49:57.869Z,9.10
2018-10-09T12:52:27.443Z,11.43
2018-10-09T12:54:56.789Z,10.97
2018-10-09T12:57:26.122Z,10.20
2018-10-09T12:59:55.773Z,11.30
2018-10-09T13:02:25.615Z,10.83
2018-10-09T13:04:54.794Z,9.40
2018-10-09T13:07:23.884Z,10.97
2018-10-09T13:09:53.768Z,8.90
2018-10-09T13:12:22.905Z,9.50
2018-10-09T13:14:52.106Z,9.07
2018-10-09T13:17:21.413Z,9.07
2018-10-09T13:19:51.580Z,8.67
2018-10-09T13:22:21.772Z,9.00
2018-10-09T13:24:50.487Z,8.60
2018-10-09T13:27:19.740Z,9.60
2018-10-09T13:29:48.781Z,8.33
2018-10-09T13:32:18.035Z,8.00
2018-10-09T13:34:47.833Z,9.10
2018-10-09T13:37:16.957Z,8.10
2018-10-09T13:39:46.100Z,8.50
2018-10-09T13:42:15.750Z,8.10
2018-10-09T13:44:44.990Z,9.10
2018-10-09T13:47:14.184Z,8.67
2018-10-09T13:49:43.241Z,9.23
2018-10-09T13:52:12.497Z,9.87
2018-10-09T13:54:41.772Z,10.27
2018-10-09T13:57:10.894Z,11.17
2018-10-09T13:59:40.110Z,10.60
2018-10-09T14:02:09.208Z,10.30
2018-10-09T14:04:38.311Z,11.00
2018-10-09T14:07:07.405Z,12.53
2018-10-09T14:09:36.668Z,11.20
2018-10-09T14:12:06.679Z,10.90
2018-10-09T14:14:36.495Z,12.17
2018-10-09T14:17:06.284Z,12.10
2018-10-09T14:19:35.568Z,12.13
2018-10-09T14:22:05.192Z,10.87
2018-10-09T14:24:34.366Z,12.97
2018-10-09T14:27:03.458Z,12.30
2018-10-09T14:29:32.813Z,14.40
2018-10-09T14:32:02.904Z,12.53
2018-10-09T14:34:32.594Z,13.47
2018-10-09T14:37:02.713Z,13.60
2018-10-09T14:39:32.605Z,14.67
2018-10-09T14:42:01.809Z,13.00
2018-10-09T14:44:31.671Z,13.40
2018-10-09T14:47:00.824Z,14.83
2018-10-09T14:49:30.543Z,15.50
2018-10-09T14:51:59.612Z,14.83
2018-10-09T14:54:28.793Z,16.90
2018-10-09T14:56:57.885Z,17.13
2018-10-09T14:59:26.965Z,17.10
2018-10-09T15:01:56.300Z,17.10
2018-10-09T15:04:25.850Z,17.70
2018-10-09T15:06:56.084Z,18.83
2018-10-09T15:09:25.199Z,19.80
2018-10-09T15:11:54.265Z,20.53
2018-10-09T15:14:23.445Z,22.63
2018-10-09T15:16:53.420Z,20.50
2018-10-09T15:19:22.408Z,19.57
2018-10-09T15:21:51.684Z,18.07
2018-10-09T15:24:20.775Z,19.73
2018-10-09T15:26:49.831Z,21.20
2018-10-09T15:29:19.141Z,23.50
2018-10-09T15:31:48.350Z,21.53
2018-10-09T15:34:17.964Z,26.83
2018-10-09T15:36:47.835Z,25.10
2018-10-09T15:39:16.907Z,23.27
2018-10-09T15:41:46.185Z,25.80
2018-10-09T15:44:15.245Z,24.37
2018-10-09T15:46:44.363Z,26.00
2018-10-09T15:49:15.009Z,25.07
2018-10-09T15:51:44.082Z,24.43
2018-10-09T15:54:13.310Z,25.37
2018-10-09T15:56:42.593Z,25.67
2018-10-09T15:59:12.474Z,24.57
2018-10-09T16:01:41.691Z,26.60
2018-10-09T16:04:11.506Z,25.87
2018-10-09T16:06:42.000Z,26.50
2018-10-09T16:09:12.141Z,26.40
2018-10-09T16:11:41.463Z,25.90
2018-10-09T16:14:10.563Z,27.20
2018-10-09T16:16:39.613Z,25.63
2018-10-09T16:19:09.136Z,25.57
2018-10-09T16:21:38.841Z,27.50
2018-10-09T16:24:08.173Z,26.67
2018-10-09T16:26:37.302Z,29.67
2018-10-09T16:29:06.394Z,27.23
2018-10-09T16:31:35.543Z,28.00
2018-10-09T16:34:04.751Z,28.43
2018-10-09T16:36:34.637Z,28.07
2018-10-09T16:39:05.268Z,27.13
2018-10-09T16:41:34.353Z,27.20
2018-10-09T16:44:04.284Z,29.57
2018-10-09T16:46:33.403Z,29.73
2018-10-09T16:49:02.560Z,27.43
2018-10-09T16:51:31.671Z,28.13
2018-10-09T16:54:00.796Z,29.00
2018-10-09T16:56:30.063Z,29.97
2018-10-09T16:58:59.137Z,27.00
2018-10-09T17:01:28.206Z,28.33
2018-10-09T17:03:57.929Z,28.93
2018-10-09T17:06:27.828Z,29.10
2018-10-09T17:08:58.152Z,29.80
2018-10-09T17:11:27.252Z,28.33
2018-10-09T17:13:56.475Z,30.80
2018-10-09T17:16:25.673Z,29.67
2018-10-09T17:18:54.805Z,29.83
2018-10-09T17:21:23.869Z,28.37
2018-10-09T17:23:52.936Z,29.90
2018-10-09T17:26:22.044Z,28.53
2018-10-09T17:28:51.848Z,27.83
2018-10-09T17:31:21.025Z,29.53
2018-10-09T17:33:50.090Z,30.50
2018-10-09T17:36:19.133Z,29.30
2018-10-09T17:38:48.345Z,29.83
2018-10-09T17:41:17.428Z,30.17
2018-10-09T17:43:46.669Z,29.20
2018-10-09T17:46:15.888Z,30.77
2018-10-09T17:48:46.325Z,30.60
2018-10-09T17:51:16.454Z,30.47
2018-10-09T17:53:46.324Z,32.50
2018-10-09T17:56:15.345Z,31.97
2018-10-09T17:58:44.522Z,30.57
2018-10-09T18:01:14.195Z,33.73
2018-10-09T18:03:43.650Z,35.83
2018-10-09T18:06:12.869Z,32.23
2018-10-09T18:08:42.445Z,32.73
2018-10-09T18:11:11.446Z,32.23
2018-10-09T18:13:41.604Z,30.33
2018-10-09T18:16:10.784Z,35.07
2018-10-09T18:18:39.881Z,34.27
2018-10-09T18:21:09.180Z,35.50
2018-10-09T18:23:38.298Z,33.17
2018-10-09T18:26:07.408Z,33.67
2018-10-09T18:28:36.728Z,34.87
2018-10-09T18:31:06.344Z,37.63
2018-10-09T18:33:35.459Z,34.93
2018-10-09T18:36:04.521Z,34.80
2018-10-09T18:38:33.817Z,35.77
2018-10-09T18:41:03.002Z,35.60
2018-10-09T18:43:32.101Z,37.77
2018-10-09T18:46:01.259Z,35.80
2018-10-09T18:48:30.520Z,35.67
2018-10-09T18:51:00.416Z,35.97
2018-10-09T18:53:29.566Z,35.97
2018-10-09T18:55:58.716Z,35.90
2018-10-09T18:58:27.998Z,36.10
2018-10-09T19:00:57.861Z,36.23
2018-10-09T19:03:26.978Z,35.83
2018-10-09T19:05:56.638Z,36.70
2018-10-09T19:08:25.769Z,38.40
2018-10-09T19:10:54.910Z,36.33
2018-10-09T19:13:23.998Z,38.30
2018-10-09T19:15:53.137Z,35.93
2018-10-09T19:18:22.414Z,37.30
2018-10-09T19:20:51.555Z,38.50
2018-10-09T19:23:21.632Z,36.80
2018-10-09T19:25:51.142Z,37.90
2018-10-09T19:28:20.285Z,36.10
2018-10-09T19:30:49.394Z,37.47
2018-10-09T19:33:18.772Z,35.90
2018-10-09T19:35:47.924Z,37.87
2018-10-09T19:38:17.036Z,39.27
2018-10-09T19:40:46.375Z,37.10
2018-10-09T19:43:16.170Z,38.97
2018-10-09T19:45:45.289Z,38.63
2018-10-09T19:48:15.131Z,39.53
2018-10-09T19:50:44.468Z,38.50
2018-10-09T19:53:14.346Z,40.60
2018-10-09T19:55:43.505Z,38.57
2018-10-09T19:58:13.204Z,39.83
2018-10-09T20:00:42.384Z,40.83
2018-10-09T20:03:11.449Z,39.37
2018-10-09T20:05:40.613Z,41.30
2018-10-09T20:08:09.920Z,38.80
2018-10-09T20:10:39.037Z,41.73
2018-10-09T20:13:08.333Z,41.83
2018-10-09T20:15:37.718Z,39.93
2018-10-09T20:18:07.467Z,41.90
2018-10-09T20:20:37.316Z,40.40
2018-10-09T20:23:06.489Z,38.93
2018-10-09T20:25:35.579Z,41.47
2018-10-09T20:28:05.284Z,41.90
2018-10-09T20:30:34.350Z,41.87
2018-10-09T20:33:03.555Z,41.70
2018-10-09T20:35:32.685Z,42.37
2018-10-09T20:38:01.748Z,42.90
2018-10-09T20:44:03.861Z,40.50
2018-10-09T20:46:32.945Z,43.23
2018-10-09T20:49:02.798Z,41.97
2018-10-09T20:51:32.532Z,41.30
2018-10-09T20:54:01.685Z,41.90
2018-10-09T20:56:31.444Z,42.37
2018-10-09T20:59:00.711Z,42.90
2018-10-09T21:01:29.781Z,43.77
2018-10-09T21:03:59.049Z,45.90
2018-10-09T21:06:28.254Z,46.20
2018-10-09T21:08:58.069Z,45.20
2018-10-09T21:11:27.378Z,44.10
2018-10-09T21:13:56.828Z,42.07
2018-10-09T21:16:27.096Z,45.70
2018-10-09T21:18:56.924Z,44.20
2018-10-09T21:21:26.732Z,43.57
2018-10-09T21:23:56.932Z,44.13
2018-10-09T21:26:26.862Z,44.33
2018-10-09T21:28:56.724Z,44.70
2018-10-09T21:31:25.928Z,44.50
2018-10-09T21:33:55.308Z,46.90
2018-10-09T21:36:24.520Z,49.17
2018-10-09T21:38:54.344Z,45.43
2018-10-09T21:41:23.981Z,45.47
2018-10-09T21:43:53.963Z,42.17
2018-10-09T21:46:23.768Z,43.07
2018-10-09T21:48:53.035Z,42.97
2018-10-09T21:51:22.101Z,39.40
2018-10-09T21:53:51.169Z,41.50
2018-10-09T21:56:20.245Z,39.97
2018-10-09T21:58:49.411Z,39.43
2018-10-09T22:01:18.723Z,39.10
2018-10-09T22:03:47.772Z,40.63
2018-10-09T22:06:16.985Z,39.93
2018-10-09T22:08:46.059Z,39.00
2018-10-09T22:11:15.149Z,41.30
2018-10-09T22:13:44.376Z,40.67
2018-10-09T22:16:13.527Z,41.70
2018-10-09T22:18:42.725Z,41.30
2018-10-09T22:21:11.837Z,39.80
2018-10-09T22:25:10.490Z,48.00
2018-10-09T22:27:40.334Z,55.67
2018-10-09T22:30:10.124Z,56.87
2018-10-09T22:32:39.194Z,66.07
2018-10-09T22:35:08.302Z,60.40
2018-10-09T22:37:37.457Z,63.50
2018-10-09T22:40:06.718Z,61.87
2018-10-09T22:42:35.769Z,47.73
2018-10-09T22:45:04.920Z,41.57
2018-10-09T22:47:34.148Z,45.67
2018-10-09T22:50:03.256Z,45.60
2018-10-09T22:52:32.320Z,50.97
2018-10-09T22:55:01.425Z,57.50
2018-10-09T22:57:30.483Z,61.50
2018-10-09T22:59:59.637Z,66.60
2018-10-09T23:02:28.651Z,70.90
2018-10-09T23:04:58.321Z,64.23
2018-10-09T23:07:27.365Z,62.07
2018-10-09T23:09:56.656Z,59.60
2018-10-09T23:12:25.761Z,59.30
2018-10-09T23:14:54.982Z,56.13
2018-10-09T23:17:25.271Z,55.30
2018-10-09T23:19:54.345Z,56.43
2018-10-09T23:22:23.791Z,54.33
2018-10-09T23:24:53.027Z,57.80
2018-10-09T23:27:22.172Z,56.47
2018-10-09T23:29:51.353Z,50.57
2018-10-09T23:32:20.557Z,51.97
2018-10-09T23:34:50.227Z,55.30
2018-10-09T23:37:19.375Z,51.30
2018-10-09T23:39:48.419Z,50.43
2018-10-09T23:42:17.620Z,46.33
2018-10-09T23:44:47.445Z,50.87
2018-10-09T23:47:16.522Z,52.67
2018-10-09T23:49:45.754Z,54.00
2018-10-09T23:52:14.991Z,53.50
2018-10-09T23:54:44.180Z,57.03
2018-10-09T23:57:13.299Z,58.17
2018-10-09T23:59:42.465Z,59.73
